createdAt,value
2022-11-01T00:00:06.897Z,100959.03
2022-11-01T00:01:07.266Z,100958.86
2022-11-01T00:02:06.504Z,100958.94
2022-11-01T00:03:06.436Z,100959.03
2022-11-01T00:04:06.553Z,100959.28
2022-11-01T00:05:08.519Z,100959.37
2022-11-01T00:06:09.441Z,100958.61
2022-11-01T00:07:10.023Z,100958.78
2022-11-01T00:08:09.948Z,100958.11
2022-11-01T00:08:18.587Z,100963.71
2022-11-01T00:09:18.909Z,100963.55
2022-11-01T00:10:19.126Z,100962.36
2022-11-01T00:11:19.503Z,100961.56
2022-11-01T00:12:21.087Z,100961.22
2022-11-01T00:13:21.416Z,100961.19
2022-11-01T00:14:21.817Z,100960.25
2022-11-01T00:15:21.946Z,100959.32
2022-11-01T00:16:21.428Z,100958.52
2022-11-01T00:17:23.302Z,100957.93
2022-11-01T00:18:22.790Z,100957.67
2022-11-01T00:19:23.156Z,100957.13
2022-11-01T00:20:24.443Z,100956.70
2022-11-01T00:21:25.222Z,100956.70
2022-11-01T00:22:25.602Z,100956.41
2022-11-01T00:23:25.927Z,100956.58
2022-11-01T00:24:26.287Z,100956.03
2022-11-01T00:25:27.069Z,100955.27
2022-11-01T00:26:26.699Z,100954.73
2022-11-01T00:27:28.333Z,100954.05
2022-11-01T00:28:28.875Z,100953.67
2022-11-01T00:29:29.571Z,100952.94
2022-11-01T00:29:38.212Z,100948.05
2022-11-01T00:30:38.851Z,100947.66
2022-11-01T00:31:39.539Z,100947.32
2022-11-01T00:32:39.640Z,100945.89
2022-11-01T00:33:41.565Z,100945.38
2022-11-01T00:34:41.454Z,100945.38
2022-11-01T00:35:43.161Z,100945.38
2022-11-01T00:36:43.091Z,100946.06
2022-11-01T00:37:43.143Z,100946.73
2022-11-01T00:38:44.861Z,100947.23
2022-11-01T00:39:44.958Z,100947.50
2022-11-01T00:40:44.181Z,100947.83
2022-11-01T00:41:45.828Z,100947.28
2022-11-01T00:42:46.370Z,100946.48
2022-11-01T00:43:46.826Z,100945.47
2022-11-01T00:44:46.835Z,100944.03
2022-11-01T00:45:48.288Z,100942.34
2022-11-01T00:46:49.279Z,100941.75
2022-11-01T00:47:48.637Z,100939.72
2022-11-01T00:48:48.795Z,100938.84
2022-11-01T00:49:48.890Z,100936.98
2022-11-01T00:50:50.219Z,100935.70
2022-11-01T00:51:51.024Z,100933.84
2022-11-01T00:52:51.406Z,100932.33
2022-11-01T00:53:00.554Z,100918.59
2022-11-01T00:54:01.408Z,100918.09
2022-11-01T00:55:02.556Z,100916.66
2022-11-01T00:56:03.436Z,100915.98
2022-11-01T00:57:03.250Z,100914.97
2022-11-01T00:58:03.765Z,100913.95
2022-11-01T00:59:03.553Z,100912.94
2022-11-01T01:00:04.195Z,100912.09
2022-11-01T01:01:05.263Z,100910.91
2022-11-01T01:02:05.485Z,100909.73
2022-11-01T01:03:05.990Z,100908.03
2022-11-01T01:04:07.465Z,100906.64
2022-11-01T01:05:07.236Z,100905.29
2022-11-01T01:06:09.140Z,100904.36
2022-11-01T01:07:10.034Z,100903.30
2022-11-01T01:08:10.946Z,100903.05
2022-11-01T01:09:11.721Z,100903.22
2022-11-01T01:10:12.397Z,100903.30
2022-11-01T01:11:11.783Z,100903.22
2022-11-01T01:12:13.683Z,100903.22
2022-11-01T01:13:13.998Z,100903.22
2022-11-01T01:14:14.028Z,100902.95
2022-11-01T01:15:13.363Z,100902.45
2022-11-01T01:16:14.682Z,100902.16
2022-11-01T01:16:23.317Z,100907.39
2022-11-01T01:17:23.893Z,100906.89
2022-11-01T01:18:25.823Z,100905.53
2022-11-01T01:19:25.143Z,100904.91
2022-11-01T01:20:25.751Z,100904.40
2022-11-01T01:21:25.854Z,100903.55
2022-11-01T01:22:26.588Z,100903.55
2022-11-01T01:23:27.769Z,100903.22
2022-11-01T01:24:28.729Z,100903.17
2022-11-01T01:25:29.669Z,100903.84
2022-11-01T01:26:28.670Z,100904.18
2022-11-01T01:27:30.392Z,100905.28
2022-11-01T01:28:29.577Z,100905.63
2022-11-01T01:29:29.710Z,100906.42
2022-11-01T01:30:30.494Z,100907.27
2022-11-01T01:31:31.944Z,100907.19
2022-11-01T01:32:32.936Z,100907.19
2022-11-01T01:33:33.198Z,100907.86
2022-11-01T01:34:32.269Z,100908.54
2022-11-01T01:35:32.555Z,100909.21
2022-11-01T01:36:33.710Z,100909.72
2022-11-01T01:37:34.352Z,100909.55
2022-11-01T01:38:34.117Z,100909.72
2022-11-01T01:39:35.123Z,100909.55
2022-11-01T01:39:44.725Z,100925.35
2022-11-01T01:40:45.049Z,100925.02
2022-11-01T01:41:46.588Z,100923.83
2022-11-01T01:42:47.326Z,100922.90
2022-11-01T01:43:46.528Z,100922.05
2022-11-01T01:44:48.234Z,100920.88
2022-11-01T01:45:48.884Z,100919.98
2022-11-01T01:46:49.352Z,100919.64
2022-11-01T01:47:50.278Z,100919.02
2022-11-01T01:48:51.448Z,100918.64
2022-11-01T01:49:50.225Z,100918.21
2022-11-01T01:50:50.636Z,100918.34
2022-11-01T01:51:52.541Z,100918.50
2022-11-01T01:52:53.177Z,100918.80
2022-11-01T01:53:53.353Z,100919.05
2022-11-01T01:54:54.153Z,100919.14
2022-11-01T01:55:54.657Z,100919.22
2022-11-01T01:56:53.819Z,100918.25
2022-11-01T01:57:55.221Z,100917.33
2022-11-01T01:58:56.067Z,100916.22
2022-11-01T01:59:04.711Z,100910.73
2022-11-01T02:00:04.911Z,100910.89
2022-11-01T02:01:05.980Z,100910.22
2022-11-01T02:02:06.498Z,100910.05
2022-11-01T02:03:07.205Z,100909.83
2022-11-01T02:04:07.311Z,100909.62
2022-11-01T02:05:09.280Z,100909.20
2022-11-01T02:06:15.222Z,100908.66
2022-11-01T02:07:10.047Z,100908.36
2022-11-01T02:08:11.981Z,100908.20
2022-11-01T02:09:12.176Z,100908.62
2022-11-01T02:10:11.496Z,100908.57
2022-11-01T02:11:12.686Z,100908.41
2022-11-01T02:12:12.847Z,100908.11
2022-11-01T02:13:13.126Z,100908.28
2022-11-01T02:14:12.881Z,100908.32
2022-11-01T02:15:14.517Z,100908.58
2022-11-01T02:16:15.324Z,100907.94
2022-11-01T02:17:16.337Z,100906.88
2022-11-01T02:18:16.758Z,100906.62
2022-11-01T02:19:17.750Z,100905.95
2022-11-01T02:20:18.635Z,100905.49
2022-11-01T02:21:17.842Z,100904.82
2022-11-01T02:22:18.045Z,100904.77
2022-11-01T02:22:26.621Z,100902.16
2022-11-01T02:23:27.878Z,100902.16
2022-11-01T02:24:28.710Z,100901.82
2022-11-01T02:25:29.478Z,100901.91
2022-11-01T02:26:30.093Z,100901.86
2022-11-01T02:27:30.309Z,100901.27
2022-11-01T02:28:30.986Z,100900.77
2022-11-01T02:29:31.827Z,100901.11
2022-11-01T02:30:32.682Z,100901.27
2022-11-01T02:31:33.339Z,100901.61
2022-11-01T02:32:33.927Z,100901.78
2022-11-01T02:33:34.833Z,100901.95
2022-11-01T02:34:35.494Z,100901.95
2022-11-01T02:35:36.088Z,100901.78
2022-11-01T02:36:36.026Z,100902.88
2022-11-01T02:37:37.552Z,100903.22
2022-11-01T02:38:37.952Z,100903.30
2022-11-01T02:39:38.319Z,100903.55
2022-11-01T02:40:39.059Z,100903.94
2022-11-01T02:41:39.734Z,100904.78
2022-11-01T02:41:48.354Z,100918.22
2022-11-01T02:42:50.033Z,100918.89
2022-11-01T02:43:50.622Z,100918.30
2022-11-01T02:44:51.232Z,100918.04
2022-11-01T02:45:51.484Z,100917.78
2022-11-01T02:46:51.810Z,100917.33
2022-11-01T02:47:52.199Z,100916.48
2022-11-01T02:48:52.697Z,100915.89
2022-11-01T02:49:53.133Z,100914.70
2022-11-01T02:50:53.742Z,100914.33
2022-11-01T02:51:52.853Z,100914.49
2022-11-01T02:52:53.243Z,100914.12
2022-11-01T02:53:55.004Z,100913.35
2022-11-01T02:54:55.034Z,100912.84
2022-11-01T02:55:55.408Z,100912.38
2022-11-01T02:56:55.573Z,100912.50
2022-11-01T02:57:56.130Z,100912.08
2022-11-01T02:58:56.158Z,100911.83
2022-11-01T02:59:56.192Z,100911.11
2022-11-01T03:00:57.108Z,100911.31
2022-11-01T03:01:07.672Z,100924.34
2022-11-01T03:02:08.088Z,100924.69
2022-11-01T03:03:08.061Z,100923.42
2022-11-01T03:04:09.899Z,100922.66
2022-11-01T03:05:10.353Z,100922.41
2022-11-01T03:06:11.169Z,100921.52
2022-11-01T03:07:10.770Z,100921.43
2022-11-01T03:08:12.469Z,100921.48
2022-11-01T03:09:13.443Z,100921.59
2022-11-01T03:10:13.489Z,100921.72
2022-11-01T03:11:13.641Z,100921.59
2022-11-01T03:12:12.847Z,100922.02
2022-11-01T03:13:13.888Z,100922.27
2022-11-01T03:14:14.358Z,100922.68
2022-11-01T03:15:14.402Z,100922.76
2022-11-01T03:16:14.335Z,100923.89
2022-11-01T03:17:15.773Z,100924.77
2022-11-01T03:18:15.830Z,100925.49
2022-11-01T03:19:16.279Z,100926.80
2022-11-01T03:20:16.945Z,100926.88
2022-11-01T03:21:17.765Z,100927.58
2022-11-01T03:21:26.396Z,100946.39
2022-11-01T03:22:28.035Z,100946.55
2022-11-01T03:23:28.280Z,100945.37
2022-11-01T03:24:29.162Z,100944.52
2022-11-01T03:25:29.418Z,100943.42
2022-11-01T03:26:30.287Z,100942.53
2022-11-01T03:27:30.737Z,100941.34
2022-11-01T03:28:30.778Z,100940.70
2022-11-01T03:29:30.886Z,100939.64
2022-11-01T03:30:31.696Z,100938.96
2022-11-01T03:31:32.127Z,100938.14
2022-11-01T03:32:32.209Z,100937.67
2022-11-01T03:33:33.221Z,100936.31
2022-11-01T03:34:32.656Z,100935.63
2022-11-01T03:35:34.131Z,100935.45
2022-11-01T03:36:34.761Z,100934.80
2022-11-01T03:37:34.189Z,100934.78
2022-11-01T03:38:35.540Z,100934.86
2022-11-01T03:39:36.356Z,100934.25
2022-11-01T03:39:44.942Z,100950.33
2022-11-01T03:40:46.160Z,100950.16
2022-11-01T03:41:47.062Z,100948.55
2022-11-01T03:42:47.958Z,100947.02
2022-11-01T03:43:48.222Z,100946.64
2022-11-01T03:44:48.584Z,100945.31
2022-11-01T03:45:48.605Z,100944.25
2022-11-01T03:46:48.697Z,100942.17
2022-11-01T03:47:49.697Z,100941.65
2022-11-01T03:48:50.560Z,100940.49
2022-11-01T03:49:50.713Z,100939.09
2022-11-01T03:50:49.997Z,100937.84
2022-11-01T03:51:50.166Z,100936.78
2022-11-01T03:52:50.766Z,100935.88
2022-11-01T03:53:52.145Z,100934.78
2022-11-01T03:54:51.598Z,100933.72
2022-11-01T03:55:52.398Z,100933.99
2022-11-01T03:56:53.092Z,100934.11
2022-11-01T03:57:53.651Z,100934.40
2022-11-01T03:58:55.480Z,100934.56
2022-11-01T03:59:56.234Z,100935.11
2022-11-01T04:00:04.877Z,100955.86
2022-11-01T04:01:06.205Z,100955.70
2022-11-01T04:02:07.010Z,100954.25
2022-11-01T04:03:06.362Z,100952.26
2022-11-01T04:04:06.142Z,100950.55
2022-11-01T04:05:07.238Z,100949.16
2022-11-01T04:06:07.851Z,100948.04
2022-11-01T04:07:08.041Z,100947.23
2022-11-01T04:08:07.769Z,100946.67
2022-11-01T04:09:09.021Z,100945.86
2022-11-01T04:10:09.868Z,100945.55
2022-11-01T04:11:10.824Z,100945.63
2022-11-01T04:12:11.077Z,100945.53
2022-11-01T04:13:11.262Z,100945.46
2022-11-01T04:14:11.515Z,100945.03
2022-11-01T04:15:11.532Z,100945.81
2022-11-01T04:16:11.955Z,100945.31
2022-11-01T04:17:12.106Z,100944.81
2022-11-01T04:18:11.952Z,100944.07
2022-11-01T04:19:13.772Z,100942.91
2022-11-01T04:19:22.915Z,100930.73
2022-11-01T04:20:24.267Z,100930.90
2022-11-01T04:21:25.205Z,100930.14
2022-11-01T04:22:26.091Z,100929.30
2022-11-01T04:23:25.421Z,100928.61
2022-11-01T04:24:26.875Z,100927.77
2022-11-01T04:25:27.804Z,100927.38
2022-11-01T04:26:28.023Z,100926.95
2022-11-01T04:27:28.164Z,100926.44
2022-11-01T04:28:28.625Z,100926.44
2022-11-01T04:29:29.420Z,100926.34
2022-11-01T04:30:29.479Z,100926.77
2022-11-01T04:31:29.531Z,100926.94
2022-11-01T04:32:30.130Z,100927.28
2022-11-01T04:33:30.203Z,100928.13
2022-11-01T04:34:30.944Z,100928.98
2022-11-01T04:35:31.662Z,100930.21
2022-11-01T04:36:32.541Z,100930.89
2022-11-01T04:37:32.676Z,100931.98
2022-11-01T04:37:41.282Z,100949.37
2022-11-01T04:38:43.132Z,100949.37
2022-11-01T04:39:43.215Z,100948.87
2022-11-01T04:40:44.010Z,100948.36
2022-11-01T04:41:44.993Z,100947.93
2022-11-01T04:42:45.617Z,100947.25
2022-11-01T04:43:46.618Z,100947.50
2022-11-01T04:44:46.654Z,100947.34
2022-11-01T04:45:46.755Z,100947.34
2022-11-01T04:46:47.147Z,100947.47
2022-11-01T04:47:47.530Z,100947.89
2022-11-01T04:48:48.361Z,100948.58
2022-11-01T04:49:48.971Z,100949.17
2022-11-01T04:50:49.907Z,100949.69
2022-11-01T04:51:49.992Z,100950.28
2022-11-01T04:52:50.552Z,100950.96
2022-11-01T04:53:50.215Z,100951.77
2022-11-01T04:54:51.183Z,100952.53
2022-11-01T04:55:51.973Z,100953.47
2022-11-01T04:56:51.773Z,100954.45
2022-11-01T04:57:00.394Z,100975.84
2022-11-01T04:58:01.509Z,100975.50
2022-11-01T04:59:02.079Z,100974.44
2022-11-01T05:00:02.779Z,100973.58
2022-11-01T05:01:02.892Z,100972.58
2022-11-01T05:02:02.334Z,100972.16
2022-11-01T05:03:03.263Z,100972.28
2022-11-01T05:04:03.429Z,100972.20
2022-11-01T05:05:05.107Z,100971.83
2022-11-01T05:06:05.983Z,100972.69
2022-11-01T05:07:06.782Z,100972.98
2022-11-01T05:08:07.357Z,100973.03
2022-11-01T05:09:06.529Z,100973.80
2022-11-01T05:10:08.320Z,100973.98
2022-11-01T05:11:08.500Z,100974.66
2022-11-01T05:12:09.325Z,100974.78
2022-11-01T05:13:09.926Z,100975.59
2022-11-01T05:14:10.001Z,100975.75
2022-11-01T05:15:10.702Z,100976.34
2022-11-01T05:16:19.758Z,100976.34
2022-11-01T05:16:20.745Z,100993.81
2022-11-01T05:17:19.879Z,100993.30
2022-11-01T05:18:21.824Z,100991.77
2022-11-01T05:19:22.286Z,100991.34
2022-11-01T05:20:22.839Z,100990.83
2022-11-01T05:21:22.973Z,100989.98
2022-11-01T05:22:23.836Z,100989.64
2022-11-01T05:23:24.732Z,100990.06
2022-11-01T05:24:24.465Z,100990.06
2022-11-01T05:25:26.136Z,100990.83
2022-11-01T05:26:26.951Z,100991.05
2022-11-01T05:27:27.259Z,100991.05
2022-11-01T05:28:28.229Z,100991.09
2022-11-01T05:29:32.829Z,100991.11
2022-11-01T05:30:28.028Z,100991.11
2022-11-01T05:31:29.251Z,100991.19
2022-11-01T05:32:29.992Z,100991.02
2022-11-01T05:33:30.092Z,100991.39
2022-11-01T05:34:30.923Z,100991.55
2022-11-01T05:35:31.582Z,100991.52
2022-11-01T05:35:40.214Z,100994.86
2022-11-01T05:36:41.229Z,100993.77
2022-11-01T05:37:41.518Z,100993.00
2022-11-01T05:38:41.863Z,100992.14
2022-11-01T05:39:41.577Z,100991.04
2022-11-01T05:40:43.494Z,100989.51
2022-11-01T05:41:44.462Z,100989.28
2022-11-01T05:42:45.343Z,100988.67
2022-11-01T05:43:46.349Z,100988.00
2022-11-01T05:44:46.528Z,100987.63
2022-11-01T05:45:46.605Z,100986.11
2022-11-01T05:46:46.900Z,100984.77
2022-11-01T05:47:47.674Z,100983.75
2022-11-01T05:48:48.474Z,100982.48
2022-11-01T05:49:48.926Z,100980.83
2022-11-01T05:50:49.196Z,100979.55
2022-11-01T05:51:49.337Z,100977.55
2022-11-01T05:52:01.495Z,100951.14
2022-11-01T05:53:03.077Z,100950.63
2022-11-01T05:54:02.416Z,100950.55
2022-11-01T05:55:02.829Z,100949.67
2022-11-01T05:56:04.650Z,100949.34
2022-11-01T05:57:04.869Z,100948.27
2022-11-01T05:58:05.666Z,100948.12
2022-11-01T05:59:06.340Z,100947.42
2022-11-01T06:00:07.042Z,100947.37
2022-11-01T06:01:07.153Z,100947.23
2022-11-01T06:02:06.641Z,100947.05
2022-11-01T06:03:07.672Z,100947.33
2022-11-01T06:04:07.994Z,100947.14
2022-11-01T06:05:09.761Z,100947.16
2022-11-01T06:06:10.085Z,100947.14
2022-11-01T06:07:11.072Z,100947.42
2022-11-01T06:08:11.741Z,100947.86
2022-11-01T06:09:12.429Z,100948.34
2022-11-01T06:10:12.273Z,100949.00
2022-11-01T06:11:13.575Z,100949.33
2022-11-01T06:12:14.420Z,100950.27
2022-11-01T06:12:23.649Z,100959.91
2022-11-01T06:13:25.578Z,100959.73
2022-11-01T06:14:24.855Z,100960.08
2022-11-01T06:15:25.336Z,100960.50
2022-11-01T06:16:27.096Z,100960.74
2022-11-01T06:17:27.107Z,100961.36
2022-11-01T06:18:27.114Z,100962.59
2022-11-01T06:19:28.004Z,100963.69
2022-11-01T06:20:28.340Z,100965.13
2022-11-01T06:21:30.450Z,100966.73
2022-11-01T06:22:28.687Z,100967.74
2022-11-01T06:23:29.786Z,100969.55
2022-11-01T06:24:30.784Z,100970.87
2022-11-01T06:25:30.516Z,100972.22
2022-11-01T06:26:32.253Z,100973.88
2022-11-01T06:27:32.711Z,100976.34
2022-11-01T06:28:33.556Z,100979.05
2022-11-01T06:29:34.512Z,100980.93
2022-11-01T06:30:35.207Z,100983.52
2022-11-01T06:30:45.392Z,101031.50
2022-11-01T06:31:47.073Z,101030.06
2022-11-01T06:32:47.555Z,101029.80
2022-11-01T06:33:47.934Z,101030.05
2022-11-01T06:34:48.602Z,101030.95
2022-11-01T06:35:48.619Z,101031.53
2022-11-01T06:36:48.901Z,101032.12
2022-11-01T06:37:49.154Z,101032.76
2022-11-01T06:38:49.206Z,101033.42
2022-11-01T06:39:49.331Z,101034.83
2022-11-01T06:40:49.021Z,101036.27
2022-11-01T06:41:50.399Z,101037.13
2022-11-01T06:42:51.183Z,101038.23
2022-11-01T06:43:51.394Z,101039.77
2022-11-01T06:44:52.175Z,101041.13
2022-11-01T06:45:52.188Z,101042.28
2022-11-01T06:46:52.691Z,101043.22
2022-11-01T06:47:52.582Z,101044.24
2022-11-01T06:48:53.725Z,101045.94
2022-11-01T06:49:53.619Z,101047.69
2022-11-01T06:50:54.811Z,101049.83
2022-11-01T06:51:03.758Z,101075.70
2022-11-01T06:52:04.661Z,101075.20
2022-11-01T06:53:05.703Z,101074.95
2022-11-01T06:54:06.511Z,101075.28
2022-11-01T06:55:06.929Z,101075.53
2022-11-01T06:56:06.068Z,101076.47
2022-11-01T06:57:07.493Z,101077.56
2022-11-01T06:58:07.778Z,101078.59
2022-11-01T06:59:07.004Z,101080.16
2022-11-01T07:00:08.159Z,101080.63
2022-11-01T07:01:07.603Z,101081.88
2022-11-01T07:02:12.453Z,101082.89
2022-11-01T07:03:08.392Z,101083.82
2022-11-01T07:04:09.159Z,101085.51
2022-11-01T07:05:10.216Z,101087.34
2022-11-01T07:06:10.490Z,101088.66
2022-11-01T07:07:11.378Z,101090.85
2022-11-01T07:08:11.450Z,101092.68
2022-11-01T07:09:11.486Z,101094.78
2022-11-01T07:10:12.129Z,101097.20
2022-11-01T07:11:11.585Z,101100.04
2022-11-01T07:12:12.836Z,101102.70
2022-11-01T07:12:21.588Z,101151.30
2022-11-01T07:13:21.793Z,101151.13
2022-11-01T07:14:24.590Z,101151.64
2022-11-01T07:15:24.326Z,101151.97
2022-11-01T07:16:25.215Z,101152.66
2022-11-01T07:17:26.179Z,101153.55
2022-11-01T07:18:25.418Z,101154.02
2022-11-01T07:19:27.077Z,101154.62
2022-11-01T07:20:26.928Z,101154.88
2022-11-01T07:21:28.286Z,101154.92
2022-11-01T07:22:29.137Z,101155.28
2022-11-01T07:23:29.585Z,101156.30
2022-11-01T07:24:30.545Z,101157.33
2022-11-01T07:25:30.827Z,101158.52
2022-11-01T07:26:29.964Z,101158.90
2022-11-01T07:27:31.701Z,101159.50
2022-11-01T07:28:32.569Z,101161.30
2022-11-01T07:28:44.211Z,101191.54
2022-11-01T07:29:46.074Z,101191.54
2022-11-01T07:30:46.469Z,101191.38
2022-11-01T07:31:46.744Z,101192.14
2022-11-01T07:32:47.524Z,101193.16
2022-11-01T07:33:48.507Z,101193.77
2022-11-01T07:34:48.951Z,101193.84
2022-11-01T07:35:49.521Z,101195.63
2022-11-01T07:36:50.452Z,101196.91
2022-11-01T07:37:50.585Z,101198.48
2022-11-01T07:38:50.733Z,101200.20
2022-11-01T07:39:51.622Z,101201.22
2022-11-01T07:40:51.895Z,101203.36
2022-11-01T07:41:51.686Z,101205.52
2022-11-01T07:42:51.925Z,101207.56
2022-11-01T07:43:53.119Z,101210.30
2022-11-01T07:44:53.295Z,101213.06
2022-11-01T07:45:54.250Z,101215.70
2022-11-01T07:46:54.297Z,101219.10
2022-11-01T07:47:53.402Z,101223.01
2022-11-01T07:48:03.207Z,101281.84
2022-11-01T07:49:03.961Z,101282.19
2022-11-01T07:50:04.629Z,101281.84
2022-11-01T07:51:06.377Z,101282.75
2022-11-01T07:52:06.145Z,101283.72
2022-11-01T07:53:07.457Z,101283.91
2022-11-01T07:54:08.342Z,101284.80
2022-11-01T07:55:09.011Z,101285.41
2022-11-01T07:56:09.538Z,101286.01
2022-11-01T07:57:08.656Z,101287.16
2022-11-01T07:58:09.405Z,101288.53
2022-11-01T07:59:09.546Z,101289.94
2022-11-01T08:00:09.578Z,101292.75
2022-11-01T08:01:12.647Z,101295.31
2022-11-01T08:02:10.990Z,101297.57
2022-11-01T08:03:11.485Z,101299.23
2022-11-01T08:04:12.500Z,101300.61
2022-11-01T08:05:13.440Z,101302.80
2022-11-01T08:06:13.888Z,101304.80
2022-11-01T08:07:13.447Z,101307.20
2022-11-01T08:08:15.089Z,101309.72
2022-11-01T08:09:16.071Z,101310.92
2022-11-01T08:10:16.485Z,101314.25
2022-11-01T08:10:25.164Z,101362.95
2022-11-01T08:11:26.127Z,101362.27
2022-11-01T08:12:26.880Z,101363.13
2022-11-01T08:13:28.102Z,101364.14
2022-11-01T08:14:28.821Z,101365.92
2022-11-01T08:15:28.857Z,101367.55
2022-11-01T08:16:29.061Z,101369.03
2022-11-01T08:17:29.218Z,101370.91
2022-11-01T08:18:29.296Z,101372.06
2022-11-01T08:19:31.072Z,101373.64
2022-11-01T08:20:30.862Z,101375.70
2022-11-01T08:21:31.381Z,101377.78
2022-11-01T08:22:31.650Z,101379.50
2022-11-01T08:23:31.537Z,101381.92
2022-11-01T08:24:33.426Z,101383.89
2022-11-01T08:25:33.626Z,101385.81
2022-11-01T08:26:34.633Z,101387.22
2022-11-01T08:27:35.374Z,101389.02
2022-11-01T08:28:35.248Z,101391.20
2022-11-01T08:29:36.608Z,101393.11
2022-11-01T08:30:37.472Z,101395.03
2022-11-01T08:30:46.096Z,101421.53
2022-11-01T08:31:47.406Z,101420.84
2022-11-01T08:32:47.525Z,101420.13
2022-11-01T08:33:47.477Z,101419.44
2022-11-01T08:34:48.548Z,101418.85
2022-11-01T08:35:50.743Z,101417.58
2022-11-01T08:36:48.608Z,101417.49
2022-11-01T08:37:49.935Z,101417.41
2022-11-01T08:38:50.566Z,101417.70
2022-11-01T08:39:51.433Z,101418.55
2022-11-01T08:40:52.023Z,101418.81
2022-11-01T08:41:51.589Z,101419.33
2022-11-01T08:42:52.405Z,101420.05
2022-11-01T08:43:54.036Z,101420.70
2022-11-01T08:44:54.830Z,101421.98
2022-11-01T08:45:55.017Z,101423.27
2022-11-01T08:46:54.854Z,101424.34
2022-11-01T08:47:55.961Z,101426.14
2022-11-01T08:48:56.928Z,101427.55
2022-11-01T08:49:56.523Z,101429.03
2022-11-01T08:50:58.286Z,101430.02
2022-11-01T08:51:57.659Z,101432.28
2022-11-01T08:52:08.296Z,101463.00
2022-11-01T08:53:07.691Z,101463.13
2022-11-01T08:54:09.472Z,101464.02
2022-11-01T08:55:10.145Z,101464.31
2022-11-01T08:56:10.714Z,101464.49
2022-11-01T08:57:10.860Z,101464.88
2022-11-01T08:58:10.744Z,101465.00
2022-11-01T08:59:12.335Z,101465.27
2022-11-01T09:00:12.357Z,101465.49
2022-11-01T09:01:13.428Z,101466.25
2022-11-01T09:02:13.021Z,101467.16
2022-11-01T09:03:13.143Z,101467.55
2022-11-01T09:04:14.168Z,101467.85
2022-11-01T09:05:15.116Z,101467.61
2022-11-01T09:06:16.018Z,101467.74
2022-11-01T09:07:16.048Z,101468.13
2022-11-01T09:08:17.202Z,101468.52
2022-11-01T09:09:17.728Z,101469.25
2022-11-01T09:10:18.145Z,101469.89
2022-11-01T09:11:18.289Z,101470.45
2022-11-01T09:12:22.009Z,101470.94
2022-11-01T09:13:18.158Z,101471.15
2022-11-01T09:13:29.751Z,101474.98
2022-11-01T09:14:30.045Z,101475.14
2022-11-01T09:15:31.270Z,101475.06
2022-11-01T09:16:30.615Z,101476.33
2022-11-01T09:17:33.379Z,101477.86
2022-11-01T09:18:32.999Z,101478.12
2022-11-01T09:19:33.871Z,101479.81
2022-11-01T09:20:33.987Z,101481.69
2022-11-01T09:21:34.095Z,101482.55
2022-11-01T09:22:34.676Z,101484.28
2022-11-01T09:23:35.597Z,101485.23
2022-11-01T09:24:36.124Z,101486.80
2022-11-01T09:25:36.335Z,101488.76
2022-11-01T09:26:36.556Z,101490.33
2022-11-01T09:27:37.099Z,101492.12
2022-11-01T09:28:36.932Z,101493.34
2022-11-01T09:29:38.397Z,101495.22
2022-11-01T09:30:45.242Z,101496.66
2022-11-01T09:31:38.899Z,101497.69
2022-11-01T09:31:48.585Z,101524.80
2022-11-01T09:32:49.718Z,101523.95
2022-11-01T09:33:49.898Z,101523.44
2022-11-01T09:34:50.651Z,101524.30
2022-11-01T09:35:53.076Z,101524.67
2022-11-01T09:36:50.406Z,101524.94
2022-11-01T09:37:51.706Z,101525.06
2022-11-01T09:38:51.413Z,101525.88
2022-11-01T09:39:53.207Z,101526.27
2022-11-01T09:40:53.588Z,101526.73
2022-11-01T09:41:54.353Z,101527.00
2022-11-01T09:42:57.906Z,101527.64
2022-11-01T09:43:53.685Z,101528.91
2022-11-01T09:44:54.644Z,101529.56
2022-11-01T09:45:56.314Z,101530.50
2022-11-01T09:46:59.666Z,101531.48
2022-11-01T09:47:55.715Z,101533.06
2022-11-01T09:48:57.513Z,101534.42
2022-11-01T09:49:57.604Z,101536.00
2022-11-01T09:50:58.473Z,101537.15
2022-11-01T09:51:07.119Z,101547.91
2022-11-01T09:52:08.142Z,101547.18
2022-11-01T09:53:08.756Z,101548.87
2022-11-01T09:54:09.368Z,101549.77
2022-11-01T09:55:10.042Z,101550.58
2022-11-01T09:56:10.969Z,101552.05
2022-11-01T09:57:11.971Z,101554.20
2022-11-01T09:58:12.956Z,101556.44
2022-11-01T09:59:12.322Z,101558.63
2022-11-01T10:00:14.099Z,101560.83
2022-11-01T10:01:14.899Z,101563.32
2022-11-01T10:02:14.413Z,101566.31
2022-11-01T10:03:15.281Z,101569.34
2022-11-01T10:04:16.923Z,101572.45
2022-11-01T10:05:18.764Z,101576.11
2022-11-01T10:06:16.385Z,101580.27
2022-11-01T10:07:17.656Z,101584.89
2022-11-01T10:08:17.864Z,101589.81
2022-11-01T10:09:18.113Z,101594.77
2022-11-01T10:10:18.838Z,101600.74
2022-11-01T10:10:30.001Z,101697.30
2022-11-01T10:11:27.690Z,101696.37
2022-11-01T10:12:29.558Z,101697.02
2022-11-01T10:13:30.336Z,101698.27
2022-11-01T10:14:29.335Z,101698.32
2022-11-01T10:15:31.106Z,101698.95
2022-11-01T10:16:31.343Z,101700.58
2022-11-01T10:17:32.268Z,101701.20
2022-11-01T10:18:33.254Z,101701.37
2022-11-01T10:19:33.386Z,101702.28
2022-11-01T10:20:34.286Z,101703.41
2022-11-01T10:21:33.667Z,101704.24
2022-11-01T10:22:35.412Z,101704.96
2022-11-01T10:23:36.314Z,101705.91
2022-11-01T10:24:36.671Z,101707.52
2022-11-01T10:25:36.586Z,101708.97
2022-11-01T10:26:38.409Z,101710.84
2022-11-01T10:27:38.512Z,101713.19
2022-11-01T10:28:38.740Z,101714.27
2022-11-01T10:29:38.553Z,101715.47
2022-11-01T10:29:47.232Z,101729.26
2022-11-01T10:30:48.745Z,101728.83
2022-11-01T10:31:49.119Z,101728.37
2022-11-01T10:32:49.519Z,101728.23
2022-11-01T10:33:49.482Z,101728.22
2022-11-01T10:34:50.342Z,101727.33
2022-11-01T10:35:51.085Z,101728.03
2022-11-01T10:36:51.745Z,101728.20
2022-11-01T10:38:04.246Z,101728.13
2022-11-01T10:39:55.679Z,101728.97
2022-11-01T10:40:52.579Z,101729.97
2022-11-01T10:41:53.948Z,101730.92
2022-11-01T10:42:54.471Z,101730.52
2022-11-01T10:43:57.326Z,101730.66
2022-11-01T10:44:53.767Z,101731.07
2022-11-01T10:45:55.525Z,101730.98
2022-11-01T10:46:54.633Z,101731.73
2022-11-01T10:47:55.631Z,101732.53
2022-11-01T10:48:55.788Z,101732.78
2022-11-01T10:50:06.941Z,101746.17
2022-11-01T10:50:11.835Z,101733.41
2022-11-01T10:51:05.705Z,101745.41
2022-11-01T10:52:07.631Z,101744.97
2022-11-01T10:53:08.006Z,101744.91
2022-11-01T10:54:07.047Z,101745.46
2022-11-01T10:55:08.131Z,101744.95
2022-11-01T10:56:08.961Z,101744.56
2022-11-01T10:57:09.472Z,101744.00
2022-11-01T10:58:10.190Z,101744.20
2022-11-01T10:59:11.088Z,101744.48
2022-11-01T11:00:10.674Z,101744.87
2022-11-01T11:01:12.665Z,101744.72
2022-11-01T11:02:12.596Z,101745.23
2022-11-01T11:03:12.960Z,101745.52